Time,TemperatureF,DewpointF,PressureIn,WindDirection,WindDirectionDegrees,WindSpeedMPH,WindSpeedGustMPH,Humidity,HourlyPrecipIn,Conditions,Clouds,dailyrainin,SoftwareType,DateUTC
2013-04-27 00:01:00,43.0,25.6,30.42,ESE,104,0.0,0.0,50,0.00,,---,0.00,VWS V14.01,2013-04-27 04:01:00,
2013-04-27 00:03:00,42.8,25.5,30.42,ESE,104,0.0,0.0,50,0.00,,---,0.00,VWS V14.01,2013-04-27 04:03:00,
2013-04-27 00:06:00,42.8,25.5,30.42,ESE,104,0.0,0.0,50,0.00,,---,0.00,VWS V14.01,2013-04-27 04:06:00,
2013-04-27 00:08:00,42.8,25.5,30.42,ESE,104,0.0,0.0,50,0.00,,---,0.00,VWS V14.01,2013-04-27 04:08:00,
2013-04-27 00:09:00,42.6,25.8,30.42,ESE,104,0.0,0.0,51,0.00,,---,0.00,VWS V14.01,2013-04-27 04:09:00,
2013-04-27 00:15:00,42.6,25.8,30.42,ESE,104,0.0,0.0,51,0.00,,---,0.00,VWS V14.01,2013-04-27 04:15:00,
2013-04-27 00:21:00,42.4,25.6,30.42,ESE,104,0.0,0.0,51,0.00,,---,0.00,VWS V14.01,2013-04-27 04:21:00,
2013-04-27 00:26:00,42.3,25.4,30.42,ESE,104,0.0,0.0,51,0.00,,---,0.00,VWS V14.01,2013-04-27 04:26:00,
2013-04-27 00:31:00,42.3,25.4,30.42,ESE,104,0.0,0.0,51,0.00,,---,0.00,VWS V14.01,2013-04-27 04:31:00,
2013-04-27 00:36:00,42.1,25.3,30.42,ESE,104,0.0,0.0,51,0.00,,---,0.00,VWS V14.01,2013-04-27 04:36:00,
2013-04-27 00:42:00,41.7,24.9,30.42,ESE,104,0.0,0.0,51,0.00,,---,0.00,VWS V14.01,2013-04-27 04:42:00,
2013-04-27 00:47:00,41.5,24.8,30.42,ESE,104,0.0,0.0,51,0.00,,---,0.00,VWS V14.01,2013-04-27 04:47:00,
2013-04-27 00:53:00,41.5,24.8,30.42,ESE,104,0.0,0.0,51,0.00,,---,0.00,VWS V14.01,2013-04-27 04:53:00,
2013-04-27 00:58:00,41.2,24.9,30.42,ESE,104,0.0,0.0,52,0.00,,---,0.00,VWS V14.01,2013-04-27 04:58:00,
2013-04-27 01:04:00,41.2,24.9,30.42,ESE,104,0.0,0.0,52,0.00,,---,0.00,VWS V14.01,2013-04-27 05:04:00,
2013-04-27 01:09:00,41.2,24.9,30.42,ESE,104,0.0,0.0,52,0.00,,---,0.00,VWS V14.01,2013-04-27 05:09:00,
2013-04-27 01:15:00,41.2,24.9,30.42,ESE,104,0.0,0.0,52,0.00,,---,0.00,VWS V14.01,2013-04-27 05:15:00,
2013-04-27 01:21:00,41.0,24.7,30.42,ESE,104,0.0,0.0,52,0.00,,---,0.00,VWS V14.01,2013-04-27 05:21:00,
2013-04-27 01:26:00,40.6,24.4,30.42,ESE,104,0.0,0.0,52,0.00,,---,0.00,VWS V14.01,2013-04-27 05:26:00,
2013-04-27 01:32:00,40.6,24.9,30.42,ESE,104,0.0,0.0,53,0.00,,---,0.00,VWS V14.01,2013-04-27 05:32:00,
2013-04-27 01:38:00,40.6,24.9,30.42,ESE,104,0.0,0.0,53,0.00,,---,0.00,VWS V14.01,2013-04-27 05:38:00,
2013-04-27 01:43:00,40.5,24.7,30.42,ESE,104,0.0,0.0,53,0.00,,---,0.00,VWS V14.01,2013-04-27 05:43:00,
2013-04-27 01:49:00,40.5,24.7,30.42,ESE,104,0.0,0.0,53,0.00,,---,0.00,VWS V14.01,2013-04-27 05:49:00,
2013-04-27 01:54:00,40.5,24.7,30.39,ESE,104,0.0,0.0,53,0.00,,---,0.00,VWS V14.01,2013-04-27 05:54:00,
2013-04-27 02:00:00,40.3,24.5,30.39,ESE,104,0.0,0.0,53,0.00,,---,0.00,VWS V14.01,2013-04-27 06:00:00,
2013-04-27 02:06:00,40.3,24.5,30.39,ESE,104,0.0,0.0,53,0.00,,---,0.00,VWS V14.01,2013-04-27 06:06:00,
2013-04-27 02:11:00,40.3,24.5,30.39,ESE,104,0.0,0.0,53,0.00,,---,0.00,VWS V14.01,2013-04-27 06:11:00,
2013-04-27 02:17:00,40.1,24.4,30.39,ESE,104,0.0,0.0,53,0.00,,---,0.00,VWS V14.01,2013-04-27 06:17:00,
2013-04-27 02:22:00,40.3,24.5,30.39,ESE,104,0.0,0.0,53,0.00,,---,0.00,VWS V14.01,2013-04-27 06:22:00,
2013-04-27 02:28:00,40.1,24.4,30.39,ESE,104,0.0,0.0,53,0.00,,---,0.00,VWS V14.01,2013-04-27 06:28:00,
2013-04-27 02:34:00,40.1,24.8,30.39,ESE,104,0.0,0.0,54,0.00,,---,0.00,VWS V14.01,2013-04-27 06:34:00,
2013-04-27 02:39:00,40.3,25.0,30.39,ESE,104,0.0,0.0,54,0.00,,---,0.00,VWS V14.01,2013-04-27 06:39:00,
2013-04-27 02:44:00,40.1,24.8,30.39,ESE,104,0.0,0.0,54,0.00,,---,0.00,VWS V14.01,2013-04-27 06:44:00,
2013-04-27 02:49:00,40.3,25.0,30.39,ESE,104,0.0,0.0,54,0.00,,---,0.00,VWS V14.01,2013-04-27 06:49:00,
2013-04-27 02:55:00,40.3,25.0,30.39,ESE,104,0.0,0.0,54,0.00,,---,0.00,VWS V14.01,2013-04-27 06:55:00,
2013-04-27 03:00:00,40.5,25.1,30.39,ESE,104,0.0,0.0,54,0.00,,---,0.00,VWS V14.01,2013-04-27 07:00:00,
2013-04-27 03:06:00,40.5,25.1,30.39,ESE,104,0.0,0.0,54,0.00,,---,0.00,VWS V14.01,2013-04-27 07:06:00,
2013-04-27 03:11:00,40.8,25.9,30.39,ESE,104,0.0,0.0,55,0.00,,---,0.00,VWS V14.01,2013-04-27 07:11:00,
2013-04-27 03:17:00,41.0,25.6,30.39,ESE,104,0.0,0.0,54,0.00,,---,0.00,VWS V14.01,2013-04-27 07:17:00,
2013-04-27 03:22:00,41.0,25.6,30.39,ESE,104,0.0,0.0,54,0.00,,---,0.00,VWS V14.01,2013-04-27 07:22:00,
2013-04-27 03:28:00,40.8,25.9,30.39,ESE,104,0.0,0.0,55,0.00,,---,0.00,VWS V14.01,2013-04-27 07:28:00,
2013-04-27 03:34:00,40.6,25.8,30.39,ESE,104,0.0,0.0,55,0.00,,---,0.00,VWS V14.01,2013-04-27 07:34:00,
2013-04-27 03:39:00,40.6,25.8,30.39,ESE,104,0.0,0.0,55,0.00,,---,0.00,VWS V14.01,2013-04-27 07:39:00,
2013-04-27 03:44:00,40.8,25.9,30.39,ESE,104,0.0,0.0,55,0.00,,---,0.00,VWS V14.01,2013-04-27 07:44:00,
2013-04-27 03:49:00,41.0,26.1,30.39,ESE,104,0.0,0.0,55,0.00,,---,0.00,VWS V14.01,2013-04-27 07:49:00,
2013-04-27 03:55:00,41.0,26.1,30.39,ESE,104,0.0,0.0,55,0.00,,---,0.00,VWS V14.01,2013-04-27 07:55:00,
2013-04-27 04:01:00,40.6,25.8,30.39,ESE,104,0.0,0.0,55,0.00,,---,0.00,VWS V14.01,2013-04-27 08:01:00,
2013-04-27 04:06:00,40.6,26.2,30.39,ESE,104,0.0,0.0,56,0.00,,---,0.00,VWS V14.01,2013-04-27 08:06:00,
2013-04-27 04:12:00,40.5,26.0,30.39,ESE,104,0.0,0.0,56,0.00,,---,0.00,VWS V14.01,2013-04-27 08:12:00,
2013-04-27 04:17:00,40.6,26.2,30.39,ESE,104,0.0,0.0,56,0.00,,---,0.00,VWS V14.01,2013-04-27 08:17:00,
2013-04-27 04:23:00,41.0,26.5,30.39,ESE,104,0.0,0.0,56,0.00,,---,0.00,VWS V14.01,2013-04-27 08:23:00,
2013-04-27 04:28:00,41.2,26.7,30.39,ESE,104,0.0,0.0,56,0.00,,---,0.00,VWS V14.01,2013-04-27 08:28:00,
2013-04-27 04:33:00,41.4,26.9,30.39,ESE,104,0.0,0.0,56,0.00,,---,0.00,VWS V14.01,2013-04-27 08:33:00,
2013-04-27 04:38:00,41.4,27.3,30.39,ESE,104,0.0,0.0,57,0.00,,---,0.00,VWS V14.01,2013-04-27 08:38:00,
2013-04-27 04:44:00,41.5,27.5,30.39,ESE,104,0.0,0.0,57,0.00,,---,0.00,VWS V14.01,2013-04-27 08:44:00,
2013-04-27 04:49:00,41.4,27.3,30.39,ESE,104,0.0,0.0,57,0.00,,---,0.00,VWS V14.01,2013-04-27 08:49:00,
2013-04-27 04:55:00,41.2,27.1,30.39,ESE,104,2.6,2.6,57,0.00,,---,0.00,VWS V14.01,2013-04-27 08:55:00,
2013-04-27 05:01:00,41.4,27.3,30.39,North,1,0.0,0.0,57,0.00,,---,0.00,VWS V14.01,2013-04-27 09:01:00,
2013-04-27 05:06:00,41.5,27.9,30.39,North,3,0.0,0.0,58,0.00,,---,0.00,VWS V14.01,2013-04-27 09:06:00,
2013-04-27 05:12:00,41.5,27.9,30.39,NNE,16,0.0,0.0,58,0.00,,---,0.00,VWS V14.01,2013-04-27 09:12:00,
2013-04-27 05:17:00,41.9,28.6,30.39,North,2,0.0,3.6,59,0.00,,---,0.00,VWS V14.01,2013-04-27 09:17:00,
2013-04-27 05:23:00,42.6,29.7,30.39,NNE,12,0.0,0.0,60,0.00,,---,0.00,VWS V14.01,2013-04-27 09:23:00,
2013-04-27 05:28:00,43.0,30.1,30.39,NNE,15,2.6,3.1,60,0.00,,---,0.00,VWS V14.01,2013-04-27 09:28:00,
2013-04-27 05:34:00,43.3,30.8,30.39,NNE,17,0.0,3.6,61,0.00,,---,0.00,VWS V14.01,2013-04-27 09:34:00,
2013-04-27 05:40:00,43.7,31.1,30.39,NE,48,0.0,2.6,61,0.00,,---,0.00,VWS V14.01,2013-04-27 09:40:00,
2013-04-27 05:45:00,43.7,31.1,30.39,North,350,3.6,3.6,61,0.00,,---,0.00,VWS V14.01,2013-04-27 09:45:00,
2013-04-27 05:51:00,44.2,31.7,30.39,North,353,0.0,0.0,61,0.00,,---,0.00,VWS V14.01,2013-04-27 09:51:00,
2013-04-27 05:56:00,44.1,31.5,30.39,North,2,0.0,2.6,61,0.00,,---,0.00,VWS V14.01,2013-04-27 09:56:00,
2013-04-27 06:01:00,44.4,31.8,30.39,North,2,3.1,3.1,61,0.00,,---,0.00,VWS V14.01,2013-04-27 10:01:00,
2013-04-27 06:06:00,44.6,32.0,30.39,North,2,0.0,0.0,61,0.00,,---,0.00,VWS V14.01,2013-04-27 10:06:00,
2013-04-27 06:12:00,44.6,32.0,30.39,North,2,0.0,0.0,61,0.00,,---,0.00,VWS V14.01,2013-04-27 10:12:00,
2013-04-27 06:17:00,44.8,32.2,30.39,North,8,0.0,0.0,61,0.00,,---,0.00,VWS V14.01,2013-04-27 10:17:00,
2013-04-27 06:23:00,44.8,32.2,30.39,ENE,57,0.0,0.0,61,0.00,,---,0.00,VWS V14.01,2013-04-27 10:23:00,
2013-04-27 06:29:00,45.0,32.3,30.39,NE,50,0.0,0.0,61,0.00,,---,0.00,VWS V14.01,2013-04-27 10:29:00,
2013-04-27 06:35:00,45.0,32.3,30.39,NE,50,0.0,0.0,61,0.00,,---,0.00,VWS V14.01,2013-04-27 10:35:00,
2013-04-27 06:40:00,45.1,32.9,30.42,NE,50,0.0,0.0,62,0.00,,---,0.00,VWS V14.01,2013-04-27 10:40:00,
2013-04-27 06:46:00,45.1,32.9,30.42,East,92,0.0,0.0,62,0.00,,---,0.00,VWS V14.01,2013-04-27 10:46:00,
2013-04-27 06:51:00,45.1,32.9,30.42,NE,37,0.0,0.0,62,0.00,,---,0.00,VWS V14.01,2013-04-27 10:51:00,
2013-04-27 06:57:00,45.5,33.7,30.42,ESE,104,0.0,0.0,63,0.00,,---,0.00,VWS V14.01,2013-04-27 10:57:00,
2013-04-27 07:02:00,45.7,33.8,30.42,ESE,104,0.0,0.0,63,0.00,,---,0.00,VWS V14.01,2013-04-27 11:02:00,
2013-04-27 07:08:00,45.9,34.0,30.42,East,81,0.0,0.0,63,0.00,,---,0.00,VWS V14.01,2013-04-27 11:08:00,
2013-04-27 07:14:00,46.0,34.6,30.42,ESE,111,0.0,0.0,64,0.00,,---,0.00,VWS V14.01,2013-04-27 11:14:00,
2013-04-27 07:19:00,46.2,34.7,30.42,ESE,111,3.1,3.1,64,0.00,,---,0.00,VWS V14.01,2013-04-27 11:19:00,
2013-04-27 07:24:00,46.6,35.1,30.42,ESE,111,0.0,0.0,64,0.00,,---,0.00,VWS V14.01,2013-04-27 11:24:00,
2013-04-27 07:29:00,47.1,36.0,30.42,ESE,116,0.0,0.0,65,0.00,,---,0.00,VWS V14.01,2013-04-27 11:29:00,
2013-04-27 07:35:00,47.5,36.3,30.42,ESE,116,0.0,0.0,65,0.00,,---,0.00,VWS V14.01,2013-04-27 11:35:00,
2013-04-27 07:40:00,48.0,36.8,30.39,ESE,116,0.0,0.0,65,0.00,,---,0.00,VWS V14.01,2013-04-27 11:40:00,
2013-04-27 07:46:00,48.4,37.2,30.39,East,83,0.0,0.0,65,0.00,,---,0.00,VWS V14.01,2013-04-27 11:46:00,
2013-04-27 07:51:00,48.7,37.5,30.39,ESE,123,0.0,0.0,65,0.00,,---,0.00,VWS V14.01,2013-04-27 11:51:00,
2013-04-27 07:57:00,49.1,38.2,30.42,ESE,104,0.0,3.6,66,0.00,,---,0.00,VWS V14.01,2013-04-27 11:57:00,
2013-04-27 08:03:00,49.6,38.8,30.42,NE,39,0.0,4.1,66,0.00,,---,0.00,VWS V14.01,2013-04-27 12:03:00,
2013-04-27 08:08:00,49.6,38.8,30.42,North,8,0.0,0.0,66,0.00,,---,0.00,VWS V14.01,2013-04-27 12:08:00,
2013-04-27 08:14:00,49.3,38.0,30.42,North,6,0.0,3.6,65,0.00,,---,0.00,VWS V14.01,2013-04-27 12:14:00,
2013-04-27 08:19:00,49.8,38.9,30.42,North,4,0.0,0.0,66,0.00,,---,0.00,VWS V14.01,2013-04-27 12:19:00,
2013-04-27 08:25:00,50.0,39.1,30.42,ESE,103,3.1,3.1,66,0.00,,---,0.00,VWS V14.01,2013-04-27 12:25:00,
2013-04-27 08:31:00,50.4,39.8,30.42,ESE,103,0.0,0.0,67,0.00,,---,0.00,VWS V14.01,2013-04-27 12:31:00,
2013-04-27 08:36:00,50.4,39.8,30.42,NNE,17,0.0,0.0,67,0.00,,---,0.00,VWS V14.01,2013-04-27 12:36:00,
2013-04-27 08:42:00,50.5,40.0,30.42,ENE,68,0.0,3.1,67,0.00,,---,0.00,VWS V14.01,2013-04-27 12:42:00,
2013-04-27 08:47:00,51.1,40.5,30.42,North,8,0.0,0.0,67,0.00,,---,0.00,VWS V14.01,2013-04-27 12:47:00,
2013-04-27 08:52:00,51.6,41.0,30.42,NNW,343,0.0,0.0,67,0.00,,---,0.00,VWS V14.01,2013-04-27 12:52:00,
2013-04-27 08:57:00,51.8,40.4,30.42,NE,54,0.0,0.0,65,0.00,,---,0.00,VWS V14.01,2013-04-27 12:57:00,
2013-04-27 09:03:00,52.0,36.3,30.42,NNE,12,0.0,0.0,55,0.00,,---,0.00,VWS V14.01,2013-04-27 13:03:00,
2013-04-27 09:08:00,52.2,34.6,30.42,East,94,0.0,2.6,51,0.00,,---,0.00,VWS V14.01,2013-04-27 13:08:00,
2013-04-27 09:14:00,52.5,32.9,30.42,North,349,2.6,3.6,47,0.00,,---,0.00,VWS V14.01,2013-04-27 13:14:00,
2013-04-27 09:20:00,52.9,33.2,30.42,NW,318,0.0,0.0,47,0.00,,---,0.00,VWS V14.01,2013-04-27 13:20:00,
2013-04-27 09:25:00,52.5,30.7,30.42,NNE,21,0.0,0.0,43,0.00,,---,0.00,VWS V14.01,2013-04-27 13:25:00,
2013-04-27 09:31:00,53.2,30.8,30.42,SE,133,3.1,3.1,42,0.00,,---,0.00,VWS V14.01,2013-04-27 13:31:00,
2013-04-27 09:36:00,53.2,29.6,30.42,East,93,4.1,4.1,40,0.00,,---,0.00,VWS V14.01,2013-04-27 13:36:00,
2013-04-27 09:42:00,53.1,29.4,30.42,NNE,18,4.6,4.6,40,0.00,,---,0.00,VWS V14.01,2013-04-27 13:42:00,
2013-04-27 09:49:00,54.0,30.2,30.42,West,274,0.0,3.1,40,0.00,,---,0.00,VWS V14.01,2013-04-27 13:49:00,
2013-04-27 09:55:00,54.3,29.9,30.42,NE,34,3.1,3.6,39,0.00,,---,0.00,VWS V14.01,2013-04-27 13:55:00,
2013-04-27 10:00:00,54.1,29.1,30.42,NNE,31,4.6,4.6,38,0.00,,---,0.00,VWS V14.01,2013-04-27 14:00:00,
2013-04-27 10:06:00,54.7,29.6,30.42,NNE,23,3.1,4.6,38,0.00,,---,0.00,VWS V14.01,2013-04-27 14:06:00,
2013-04-27 10:11:00,54.3,25.1,30.42,ESE,104,3.1,4.1,32,0.00,,---,0.00,VWS V14.01,2013-04-27 14:11:00,
2013-04-27 10:17:00,54.5,24.5,30.42,North,6,0.0,0.0,31,0.00,,---,0.00,VWS V14.01,2013-04-27 14:17:00,
2013-04-27 10:23:00,55.6,23.9,30.42,East,101,0.0,3.6,29,0.00,,---,0.00,VWS V14.01,2013-04-27 14:23:00,
2013-04-27 10:28:00,56.1,24.3,30.42,ENE,58,0.0,3.1,29,0.00,,---,0.00,VWS V14.01,2013-04-27 14:28:00,
2013-04-27 10:34:00,55.8,23.2,30.42,SSE,153,0.0,3.6,28,0.00,,---,0.00,VWS V14.01,2013-04-27 14:34:00,
2013-04-27 10:39:00,56.1,23.5,30.45,NE,37,3.1,4.1,28,0.00,,---,0.00,VWS V14.01,2013-04-27 14:39:00,
2013-04-27 10:45:00,56.5,23.8,30.45,North,9,3.6,3.6,28,0.00,,---,0.00,VWS V14.01,2013-04-27 14:45:00,
2013-04-27 10:51:00,56.5,23.8,30.45,East,87,0.0,4.1,28,0.00,,---,0.00,VWS V14.01,2013-04-27 14:51:00,
2013-04-27 10:56:00,56.7,24.0,30.45,NNE,24,0.0,5.7,28,0.00,,---,0.00,VWS V14.01,2013-04-27 14:56:00,
2013-04-27 11:02:00,56.7,24.0,30.45,NNW,338,0.0,2.6,28,0.00,,---,0.00,VWS V14.01,2013-04-27 15:02:00,
2013-04-27 11:07:00,56.7,24.0,30.45,ENE,74,0.0,4.1,28,0.00,,---,0.00,VWS V14.01,2013-04-27 15:07:00,
2013-04-27 11:12:00,56.3,21.0,30.45,North,357,0.0,4.6,25,0.00,,---,0.00,VWS V14.01,2013-04-27 15:12:00,
2013-04-27 11:17:00,56.8,21.4,30.45,ENE,78,0.0,3.6,25,0.00,,---,0.00,VWS V14.01,2013-04-27 15:17:00,
2013-04-27 11:23:00,57.2,23.5,30.45,SE,134,0.0,3.6,27,0.00,,---,0.00,VWS V14.01,2013-04-27 15:23:00,
2013-04-27 11:28:00,57.6,23.9,30.45,East,79,4.1,4.6,27,0.00,,---,0.00,VWS V14.01,2013-04-27 15:28:00,
2013-04-27 11:34:00,57.9,19.3,30.45,ENE,65,0.0,3.6,22,0.00,,---,0.00,VWS V14.01,2013-04-27 15:34:00,
2013-04-27 11:40:00,58.8,20.1,30.45,East,91,4.6,4.6,22,0.00,,---,0.00,VWS V14.01,2013-04-27 15:40:00,
2013-04-27 11:46:00,59.0,20.2,30.45,ENE,78,3.6,3.6,22,0.00,,---,0.00,VWS V14.01,2013-04-27 15:46:00,
2013-04-27 11:52:00,59.4,20.5,30.45,North,357,0.0,3.6,22,0.00,,---,0.00,VWS V14.01,2013-04-27 15:52:00,
2013-04-27 11:58:00,59.9,18.8,30.42,ENE,76,3.6,4.6,20,0.00,,---,0.00,VWS V14.01,2013-04-27 15:58:00,
2013-04-27 12:03:00,60.3,21.3,30.42,ESE,123,4.1,4.6,22,0.00,,---,0.00,VWS V14.01,2013-04-27 16:03:00,
2013-04-27 12:09:00,61.0,18.5,30.42,ESE,119,4.1,4.1,19,0.00,,---,0.00,VWS V14.01,2013-04-27 16:09:00,
2013-04-27 12:15:00,61.9,19.2,30.42,East,89,3.6,4.1,19,0.00,,---,0.00,VWS V14.01,2013-04-27 16:15:00,
2013-04-27 12:20:00,62.2,19.5,30.42,SE,127,3.1,4.6,19,0.00,,---,0.00,VWS V14.01,2013-04-27 16:20:00,
2013-04-27 12:26:00,62.6,19.8,30.42,East,82,0.0,4.1,19,0.00,,---,0.00,VWS V14.01,2013-04-27 16:26:00,
2013-04-27 12:31:00,63.0,20.1,30.42,ESE,114,5.1,7.2,19,0.00,,---,0.00,VWS V14.01,2013-04-27 16:31:00,
2013-04-27 12:37:00,63.3,20.4,30.42,ESE,103,3.1,6.2,19,0.00,,---,0.00,VWS V14.01,2013-04-27 16:37:00,
2013-04-27 12:43:00,63.1,20.2,30.42,ESE,106,4.6,6.7,19,0.00,,---,0.00,VWS V14.01,2013-04-27 16:43:00,
2013-04-27 12:48:00,63.1,20.2,30.42,SE,142,6.7,6.7,19,0.00,,---,0.00,VWS V14.01,2013-04-27 16:48:00,
2013-04-27 12:54:00,63.1,20.2,30.42,SSE,166,4.1,6.7,19,0.00,,---,0.00,VWS V14.01,2013-04-27 16:54:00,
2013-04-27 12:59:00,63.5,20.5,30.42,East,94,6.7,7.7,19,0.00,,---,0.00,VWS V14.01,2013-04-27 16:59:00,
2013-04-27 13:05:00,63.1,20.2,30.42,ESE,113,4.1,6.7,19,0.00,,---,0.00,VWS V14.01,2013-04-27 17:05:00,
2013-04-27 13:11:00,63.0,20.1,30.42,East,90,7.2,9.3,19,0.00,,---,0.00,VWS V14.01,2013-04-27 17:11:00,
2013-04-27 13:16:00,62.4,19.6,30.42,SE,146,6.7,9.3,19,0.00,,---,0.00,VWS V14.01,2013-04-27 17:16:00,
2013-04-27 13:22:00,62.8,19.9,30.42,ESE,111,10.0,10.0,19,0.00,,---,0.00,VWS V14.01,2013-04-27 17:22:00,
2013-04-27 13:27:00,62.6,19.8,30.42,East,91,6.7,7.2,19,0.00,,---,0.00,VWS V14.01,2013-04-27 17:27:00,
2013-04-27 13:33:00,63.0,20.1,30.42,ESE,111,6.7,7.2,19,0.00,,---,0.00,VWS V14.01,2013-04-27 17:33:00,
2013-04-27 13:38:00,63.1,20.2,30.42,East,93,6.2,6.7,19,0.00,,---,0.00,VWS V14.01,2013-04-27 17:38:00,
2013-04-27 13:44:00,63.5,20.5,30.42,East,91,6.2,10.0,19,0.00,,---,0.00,VWS V14.01,2013-04-27 17:44:00,
2013-04-27 13:50:00,63.5,20.5,30.42,ESE,107,3.1,6.7,19,0.00,,---,0.00,VWS V14.01,2013-04-27 17:50:00,
2013-04-27 13:55:00,63.7,20.7,30.42,East,99,6.2,6.7,19,0.00,,---,0.00,VWS V14.01,2013-04-27 17:55:00,
2013-04-27 14:01:00,63.7,20.7,30.42,SE,128,3.6,8.7,19,0.00,,---,0.00,VWS V14.01,2013-04-27 18:01:00,
2013-04-27 14:07:00,63.5,20.5,30.42,East,83,5.7,8.7,19,0.00,,---,0.00,VWS V14.01,2013-04-27 18:07:00,
2013-04-27 14:12:00,63.5,20.5,30.39,ESE,107,3.6,7.7,19,0.00,,---,0.00,VWS V14.01,2013-04-27 18:12:00,
2013-04-27 14:18:00,63.9,20.8,30.39,East,81,5.7,6.7,19,0.00,,---,0.00,VWS V14.01,2013-04-27 18:18:00,
2013-04-27 14:23:00,63.9,20.8,30.39,ESE,102,6.2,7.2,19,0.00,,---,0.00,VWS V14.01,2013-04-27 18:23:00,
2013-04-27 14:29:00,63.5,20.5,30.39,ESE,102,6.2,7.2,19,0.00,,---,0.00,VWS V14.01,2013-04-27 18:29:00,
2013-04-27 14:34:00,63.1,20.2,30.39,East,99,7.7,7.7,19,0.00,,---,0.00,VWS V14.01,2013-04-27 18:34:00,
2013-04-27 14:40:00,62.8,19.9,30.39,ESE,111,6.2,8.2,19,0.00,,---,0.00,VWS V14.01,2013-04-27 18:40:00,
2013-04-27 14:46:00,63.0,20.1,30.39,SSE,163,9.3,9.3,19,0.00,,---,0.00,VWS V14.01,2013-04-27 18:46:00,
2013-04-27 14:51:00,62.8,19.9,30.39,SSE,150,8.7,8.7,19,0.00,,---,0.00,VWS V14.01,2013-04-27 18:51:00,
2013-04-27 14:57:00,62.8,19.9,30.39,ESE,116,6.7,6.7,19,0.00,,---,0.00,VWS V14.01,2013-04-27 18:57:00,
2013-04-27 15:03:00,63.1,20.2,30.39,East,101,6.7,8.7,19,0.00,,---,0.00,VWS V14.01,2013-04-27 19:03:00,
2013-04-27 15:08:00,62.8,19.9,30.39,ESE,111,6.2,9.3,19,0.00,,---,0.00,VWS V14.01,2013-04-27 19:08:00,
2013-04-27 15:14:00,62.6,19.8,30.39,SE,145,9.5,10.0,19,0.00,,---,0.00,VWS V14.01,2013-04-27 19:14:00,
2013-04-27 15:19:00,62.2,19.5,30.39,East,100,4.1,6.7,19,0.00,,---,0.00,VWS V14.01,2013-04-27 19:19:00,
2013-04-27 15:25:00,62.2,19.5,30.39,East,90,3.1,7.2,19,0.00,,---,0.00,VWS V14.01,2013-04-27 19:25:00,
2013-04-27 15:31:00,62.4,19.6,30.39,ESE,118,6.7,7.2,19,0.00,,---,0.00,VWS V14.01,2013-04-27 19:31:00,
2013-04-27 15:36:00,62.2,19.5,30.39,SSE,151,7.2,7.2,19,0.00,,---,0.00,VWS V14.01,2013-04-27 19:36:00,
2013-04-27 15:42:00,61.9,19.2,30.39,ESE,118,8.7,8.7,19,0.00,,---,0.00,VWS V14.01,2013-04-27 19:42:00,
2013-04-27 15:47:00,61.7,19.0,30.39,ESE,111,3.6,6.2,19,0.00,,---,0.00,VWS V14.01,2013-04-27 19:47:00,
2013-04-27 15:53:00,61.9,19.2,30.39,ESE,110,4.1,7.2,19,0.00,,---,0.00,VWS V14.01,2013-04-27 19:53:00,
2013-04-27 15:58:00,61.9,19.2,30.36,SSE,157,5.7,8.7,19,0.00,,---,0.00,VWS V14.01,2013-04-27 19:58:00,
2013-04-27 16:03:00,61.7,19.0,30.36,ESE,114,3.1,7.2,19,0.00,,---,0.00,VWS V14.01,2013-04-27 20:03:00,
2013-04-27 16:09:00,61.3,18.8,30.36,ESE,115,7.2,8.2,19,0.00,,---,0.00,VWS V14.01,2013-04-27 20:09:00,
2013-04-27 16:14:00,61.0,18.5,30.36,SE,138,4.6,4.6,19,0.00,,---,0.00,VWS V14.01,2013-04-27 20:14:00,
2013-04-27 16:20:00,61.0,18.5,30.36,SE,137,5.7,7.2,19,0.00,,---,0.00,VWS V14.01,2013-04-27 20:20:00,
2013-04-27 16:25:00,61.0,18.5,30.36,East,100,4.1,5.7,19,0.00,,---,0.00,VWS V14.01,2013-04-27 20:25:00,
2013-04-27 16:31:00,61.0,18.5,30.36,SSE,163,7.2,7.2,19,0.00,,---,0.00,VWS V14.01,2013-04-27 20:31:00,
2013-04-27 16:37:00,61.0,18.5,30.36,ESE,119,6.7,6.7,19,0.00,,---,0.00,VWS V14.01,2013-04-27 20:37:00,
2013-04-27 16:42:00,60.8,18.3,30.39,ESE,106,6.2,7.7,19,0.00,,---,0.00,VWS V14.01,2013-04-27 20:42:00,
2013-04-27 16:47:00,60.4,19.2,30.39,ESE,123,3.6,7.2,20,0.00,,---,0.00,VWS V14.01,2013-04-27 20:47:00,
2013-04-27 16:53:00,59.9,18.8,30.39,East,82,5.7,6.2,20,0.00,,---,0.00,VWS V14.01,2013-04-27 20:53:00,
2013-04-27 16:59:00,59.5,18.5,30.36,SE,141,4.6,6.7,20,0.00,,---,0.00,VWS V14.01,2013-04-27 20:59:00,
2013-04-27 17:04:00,59.2,18.2,30.36,East,99,6.2,7.2,20,0.00,,---,0.00,VWS V14.01,2013-04-27 21:04:00,
2013-04-27 17:10:00,59.0,18.0,30.36,SE,141,7.7,7.7,20,0.00,,---,0.00,VWS V14.01,2013-04-27 21:10:00,
2013-04-27 17:16:00,58.8,17.9,30.36,East,93,3.1,6.2,20,0.00,,---,0.00,VWS V14.01,2013-04-27 21:16:00,
2013-04-27 17:21:00,58.5,17.6,30.36,SE,141,7.2,7.2,20,0.00,,---,0.00,VWS V14.01,2013-04-27 21:21:00,
2013-04-27 17:27:00,58.1,17.3,30.36,SE,128,4.1,6.7,20,0.00,,---,0.00,VWS V14.01,2013-04-27 21:27:00,
2013-04-27 17:32:00,58.1,17.3,30.36,SE,142,4.1,6.2,20,0.00,,---,0.00,VWS V14.01,2013-04-27 21:32:00,
2013-04-27 17:38:00,58.1,17.3,30.36,ESE,118,4.6,7.2,20,0.00,,---,0.00,VWS V14.01,2013-04-27 21:38:00,
2013-04-27 17:44:00,57.9,17.1,30.36,SSE,164,4.6,7.2,20,0.00,,---,0.00,VWS V14.01,2013-04-27 21:44:00,
2013-04-27 17:49:00,57.9,17.1,30.36,ESE,119,5.1,5.1,20,0.00,,---,0.00,VWS V14.01,2013-04-27 21:49:00,
2013-04-27 17:55:00,57.9,17.1,30.36,SE,142,4.6,7.2,20,0.00,,---,0.00,VWS V14.01,2013-04-27 21:55:00,
2013-04-27 18:00:00,57.9,17.1,30.36,SSW,203,4.1,7.2,20,0.00,,---,0.00,VWS V14.01,2013-04-27 22:00:00,
2013-04-27 18:05:00,57.7,17.0,30.36,SSE,167,6.2,6.2,20,0.00,,---,0.00,VWS V14.01,2013-04-27 22:05:00,
2013-04-27 18:10:00,57.6,16.8,30.36,South,170,4.1,5.7,20,0.00,,---,0.00,VWS V14.01,2013-04-27 22:10:00,
2013-04-27 18:15:00,57.4,16.7,30.36,South,191,5.7,6.7,20,0.00,,---,0.00,VWS V14.01,2013-04-27 22:15:00,
2013-04-27 18:20:00,57.4,16.7,30.36,SSE,162,2.6,4.6,20,0.00,,---,0.00,VWS V14.01,2013-04-27 22:20:00,
2013-04-27 18:26:00,57.2,16.5,30.33,SSE,153,4.1,4.1,20,0.00,,---,0.00,VWS V14.01,2013-04-27 22:26:00,
2013-04-27 18:31:00,57.0,16.4,30.33,SSE,162,0.0,0.0,20,0.00,,---,0.00,VWS V14.01,2013-04-27 22:31:00,
2013-04-27 18:37:00,56.8,16.2,30.33,SSE,152,0.0,0.0,20,0.00,,---,0.00,VWS V14.01,2013-04-27 22:37:00,
2013-04-27 18:42:00,56.5,15.9,30.33,East,90,0.0,0.0,20,0.00,,---,0.00,VWS V14.01,2013-04-27 22:42:00,
2013-04-27 18:47:00,56.3,15.8,30.33,SSW,192,0.0,0.0,20,0.00,,---,0.00,VWS V14.01,2013-04-27 22:47:00,
2013-04-27 18:52:00,56.3,15.8,30.33,South,178,0.0,0.0,20,0.00,,---,0.00,VWS V14.01,2013-04-27 22:52:00,
2013-04-27 18:58:00,56.1,15.6,30.36,South,187,0.0,0.0,20,0.00,,---,0.00,VWS V14.01,2013-04-27 22:58:00,
2013-04-27 19:03:00,55.6,15.2,30.36,South,180,0.0,0.0,20,0.00,,---,0.00,VWS V14.01,2013-04-27 23:03:00,
2013-04-27 19:09:00,54.9,15.7,30.36,South,175,0.0,0.0,21,0.00,,---,0.00,VWS V14.01,2013-04-27 23:09:00,
2013-04-27 19:15:00,54.3,15.2,30.36,South,184,0.0,0.0,21,0.00,,---,0.00,VWS V14.01,2013-04-27 23:15:00,
2013-04-27 19:20:00,53.8,14.8,30.36,SSW,208,0.0,0.0,21,0.00,,---,0.00,VWS V14.01,2013-04-27 23:20:00,
2013-04-27 19:26:00,53.2,14.3,30.36,SSW,202,0.0,0.0,21,0.00,,---,0.00,VWS V14.01,2013-04-27 23:26:00,
2013-04-27 19:31:00,52.9,14.0,30.36,SW,223,0.0,0.0,21,0.00,,---,0.00,VWS V14.01,2013-04-27 23:31:00,
2013-04-27 19:37:00,52.2,13.4,30.36,SSW,198,0.0,0.0,21,0.00,,---,0.00,VWS V14.01,2013-04-27 23:37:00,
2013-04-27 19:43:00,51.6,14.0,30.36,South,169,0.0,0.0,22,0.00,,---,0.00,VWS V14.01,2013-04-27 23:43:00,
2013-04-27 19:49:00,51.3,13.7,30.36,SSW,197,0.0,0.0,22,0.00,,---,0.00,VWS V14.01,2013-04-27 23:49:00,
2013-04-27 19:55:00,50.7,13.3,30.36,South,181,0.0,0.0,22,0.00,,---,0.00,VWS V14.01,2013-04-27 23:55:00,
2013-04-27 20:01:00,50.4,13.0,30.36,SSW,195,0.0,0.0,22,0.00,,---,0.00,VWS V14.01,2013-04-28 00:01:00,
2013-04-27 20:06:00,50.2,12.8,30.36,SSW,201,0.0,0.0,22,0.00,,---,0.00,VWS V14.01,2013-04-28 00:06:00,
2013-04-27 20:12:00,49.8,12.5,30.36,South,171,0.0,0.0,22,0.00,,---,0.00,VWS V14.01,2013-04-28 00:12:00,
2013-04-27 20:18:00,49.5,14.2,30.36,SSW,206,0.0,0.0,24,0.00,,---,0.00,VWS V14.01,2013-04-28 00:18:00,
2013-04-27 20:23:00,49.1,13.9,30.36,South,190,0.0,0.0,24,0.00,,---,0.00,VWS V14.01,2013-04-28 00:23:00,
2013-04-27 20:28:00,48.7,13.6,30.36,SSW,204,0.0,0.0,24,0.00,,---,0.00,VWS V14.01,2013-04-28 00:28:00,
2013-04-27 20:33:00,48.4,13.3,30.36,SW,222,0.0,0.0,24,0.00,,---,0.00,VWS V14.01,2013-04-28 00:33:00,
2013-04-27 20:38:00,48.2,13.1,30.36,SSW,211,0.0,0.0,24,0.00,,---,0.00,VWS V14.01,2013-04-28 00:38:00,
2013-04-27 20:44:00,47.8,13.7,30.36,South,173,0.0,0.0,25,0.00,,---,0.00,VWS V14.01,2013-04-28 00:44:00,
2013-04-27 20:50:00,47.7,15.3,30.36,SSW,206,0.0,0.0,27,0.00,,---,0.00,VWS V14.01,2013-04-28 00:50:00,
2013-04-27 20:55:00,47.5,15.2,30.36,SSW,206,0.0,0.0,27,0.00,,---,0.00,VWS V14.01,2013-04-28 00:55:00,
2013-04-27 21:01:00,47.3,15.0,30.36,SW,224,0.0,0.0,27,0.00,,---,0.00,VWS V14.01,2013-04-28 01:01:00,
2013-04-27 21:06:00,47.3,15.0,30.36,SSW,202,0.0,0.0,27,0.00,,---,0.00,VWS V14.01,2013-04-28 01:06:00,
2013-04-27 21:12:00,47.3,17.5,30.36,SW,230,0.0,0.0,30,0.00,,---,0.00,VWS V14.01,2013-04-28 01:12:00,
2013-04-27 21:18:00,47.3,17.5,30.36,SSW,205,0.0,0.0,30,0.00,,---,0.00,VWS V14.01,2013-04-28 01:18:00,
2013-04-27 21:23:00,47.3,17.5,30.36,SW,232,0.0,0.0,30,0.00,,---,0.00,VWS V14.01,2013-04-28 01:23:00,
2013-04-27 21:28:00,47.3,17.5,30.33,SW,218,0.0,0.0,30,0.00,,---,0.00,VWS V14.01,2013-04-28 01:28:00,
2013-04-27 21:33:00,47.3,17.5,30.33,South,179,0.0,0.0,30,0.00,,---,0.00,VWS V14.01,2013-04-28 01:33:00,
2013-04-27 21:39:00,47.1,18.1,30.36,SSW,202,0.0,0.0,31,0.00,,---,0.00,VWS V14.01,2013-04-28 01:39:00,
2013-04-27 21:44:00,47.1,18.1,30.36,South,191,0.0,0.0,31,0.00,,---,0.00,VWS V14.01,2013-04-28 01:44:00,
2013-04-27 21:50:00,46.9,17.9,30.36,SW,230,0.0,0.0,31,0.00,,---,0.00,VWS V14.01,2013-04-28 01:50:00,
2013-04-27 21:56:00,46.8,17.7,30.36,South,188,0.0,0.0,31,0.00,,---,0.00,VWS V14.01,2013-04-28 01:56:00,
2013-04-27 22:01:00,46.8,17.7,30.36,SSW,210,0.0,0.0,31,0.00,,---,0.00,VWS V14.01,2013-04-28 02:01:00,
2013-04-27 22:07:00,46.6,17.6,30.36,SW,220,0.0,0.0,31,0.00,,---,0.00,VWS V14.01,2013-04-28 02:07:00,
2013-04-27 22:12:00,46.4,18.2,30.36,SW,220,0.0,0.0,32,0.00,,---,0.00,VWS V14.01,2013-04-28 02:12:00,
2013-04-27 22:17:00,46.2,18.7,30.36,SW,220,0.0,0.0,33,0.00,,---,0.00,VWS V14.01,2013-04-28 02:17:00,
2013-04-27 22:22:00,46.0,18.6,30.36,SW,220,0.0,0.0,33,0.00,,---,0.00,VWS V14.01,2013-04-28 02:22:00,
2013-04-27 22:28:00,45.7,18.2,30.36,SW,220,0.0,0.0,33,0.00,,---,0.00,VWS V14.01,2013-04-28 02:28:00,
2013-04-27 22:33:00,45.5,18.1,30.36,SW,220,0.0,0.0,33,0.00,,---,0.00,VWS V14.01,2013-04-28 02:33:00,
2013-04-27 22:39:00,45.1,17.8,30.36,SW,220,0.0,0.0,33,0.00,,---,0.00,VWS V14.01,2013-04-28 02:39:00,
2013-04-27 22:45:00,45.0,17.6,30.36,SW,220,0.0,0.0,33,0.00,,---,0.00,VWS V14.01,2013-04-28 02:45:00,
2013-04-27 22:50:00,44.8,18.1,30.36,SW,220,0.0,0.0,34,0.00,,---,0.00,VWS V14.01,2013-04-28 02:50:00,
2013-04-27 22:55:00,44.6,18.0,30.36,SW,220,0.0,0.0,34,0.00,,---,0.00,VWS V14.01,2013-04-28 02:55:00,
2013-04-27 23:00:00,44.4,17.8,30.36,SW,220,0.0,0.0,34,0.00,,---,0.00,VWS V14.01,2013-04-28 03:00:00,
2013-04-27 23:06:00,44.4,18.5,30.36,SW,220,0.0,0.0,35,0.00,,---,0.00,VWS V14.01,2013-04-28 03:06:00,
2013-04-27 23:11:00,44.2,18.3,30.33,SW,220,0.0,0.0,35,0.00,,---,0.00,VWS V14.01,2013-04-28 03:11:00,
2013-04-27 23:17:00,44.2,18.3,30.33,SSW,209,2.6,3.6,35,0.00,,---,0.00,VWS V14.01,2013-04-28 03:17:00,
2013-04-27 23:22:00,44.1,18.2,30.33,West,268,0.0,0.0,35,0.00,,---,0.00,VWS V14.01,2013-04-28 03:22:00,
2013-04-27 23:27:00,44.1,18.8,30.33,West,262,0.0,0.0,36,0.00,,---,0.00,VWS V14.01,2013-04-28 03:27:00,
2013-04-27 23:32:00,43.9,18.7,30.33,West,266,0.0,0.0,36,0.00,,---,0.00,VWS V14.01,2013-04-28 03:32:00,
2013-04-27 23:38:00,43.9,18.7,30.33,West,270,0.0,0.0,36,0.00,,---,0.00,VWS V14.01,2013-04-28 03:38:00,
2013-04-27 23:43:00,43.9,19.3,30.33,West,270,0.0,5.7,37,0.00,,---,0.00,VWS V14.01,2013-04-28 03:43:00,
2013-04-27 23:48:00,44.2,20.3,30.33,West,265,0.0,0.0,38,0.00,,---,0.00,VWS V14.01,2013-04-28 03:48:00,
2013-04-27 23:53:00,44.4,21.0,30.33,WSW,247,0.0,3.6,39,0.00,,---,0.00,VWS V14.01,2013-04-28 03:53:00,
2013-04-27 23:59:00,44.8,22.0,30.36,NW,304,0.0,3.6,40,0.00,,---,0.00,VWS V14.01,2013-04-28 03:59:00,